Paradise, MI (49768)

12:09 PM EDT on May 25, 2015 (GMT -0400)
APRSWXNET | | Change Station
CLOSE
Current Station
Personal Weather Station
Location: Paradise, MI
Elevation: 643 ft
Nearby Weather Stations

Elev 643 ft 46.61 °N, 85.04 °W | Updated 26 minutes ago

Overcast
Overcast
48 °F
Feels Like 48 °F
N
1
Wind Variable Wind from ENE
Gusts 5.0 mph

Today
High -- | Low -- °F
--% Chance of Precip.
Yesterday
High -- | Low -- °F
Precip. -- in
5:56 AM 9:19 PM
Waxing Crescent, 49% visible
Pressure 29.81 in
Visibility 5.0 miles
Clouds Overcast 300 ft
Windchill 48 °F
Dew Point 47 °F
Humidity 97%
Rainfall in
Snow Depth Not available.
UV 3 out of 12
Pollen 1.00 out of 12
Air Quality Not available.
Flu Activity Sporadic
METAR KERY 251554Z AUTO 13007KT 110V170 5SM -RA OVC003 14/13 A2981 RMK AO2 P0003 T01350132

More Conditions Fewer Conditions

Pressure 29.81 in
Visibility 5.0 miles
Clouds Overcast 300 ft
Windchill 48 °F
Dew Point 47 °F
Humidity 97%
Rainfall in
Snow Depth Not available.
UV 3 out of 12
Pollen 1.00 out of 12
Air Quality Not available.
Flu Activity Sporadic
METAR KERY 251554Z AUTO 13007KT 110V170 5SM -RA OVC003 14/13 A2981 RMK AO2 P0003 T01350132

More Conditions Fewer Conditions

Nowcast | as of 12:00 PM EDT on May 25, 2015

At 1 PM...showers and slight chance of thunderstorms. Temperature 57. East winds 12 mph. At 3 PM...showers and slight chance of thunderstorms. Temperature 59. Southeast winds 13 mph. At 5 PM...showers and slight chance of thunderstorms. Temperature 62. Southeast winds 14 mph. At 7 PM...showers and slight chance of thunderstorms. Temperature 61. South winds 15 mph.

×

10-Day Weather Forecast

Almanac

Astronomy

May. 25, 2015 Rise Set
Actual Time
Civil Twilight
Nautical Twilight
Astronomical Twilight
Moon
Length of Visible Light
Length of Day
Tomorrow will be .
, % of the Moon is Illuminated

Today's Extremes

State Highs State Lows

Community

WunderPhotos

Upload Photos

1,824,033 photos uploaded!

WunderBlogs® & News

Nearby

Air Quality

  Air Quality AQ Index Pollutant
Not available.

Snow Depth

Station Depth Elevation

Earthquake Activity

City Distance Mag. Time & Date
Minimum magnitude displayed is 2.5.

Coastal Water Temperatures

Place Temperature

Stations

Nearby Weather Stations

Station Location Temp. Windchill Dew Point Humidity Wind Precip. Elev Updated Type